<?xml version="1.0" encoding="UTF-8" standalone="no" ?>
<gpx xmlns="http://www.topografix.com/GPX/1/1" xmlns:xsi="http://www.w3.org/2001/XMLSchema-instance" xsi:schemaLocation="http://www.topografix.com/GPX/1/1 http://www.topografix.com/GPX/1/1/gpx.xsd" version="1.1" creator="VisuGPX - https://www.visugpx.com">
  <metadata>
    <name>Ravin Du Puits Noir Et Saut Du Chevalier</name>
    <desc><![CDATA[Route created on plotaroute.com]]></desc>
  </metadata>
  <trk>
    <name><![CDATA[Ravin Du Puits Noir Et Saut Du Chevalier]]></name>
    <trkseg>
      <trkpt lat="47.11848" lon="6.12098">
        <ele>341</ele>
        <time>2022-06-05T00:00:00Z</time>
      </trkpt>
      <trkpt lat="47.11852" lon="6.12104">
        <ele>342</ele>
        <time>2022-06-05T00:00:04Z</time>
      </trkpt>
      <trkpt lat="47.11872" lon="6.12125">
        <ele>342</ele>
        <time>2022-06-05T00:00:24Z</time>
      </trkpt>
      <trkpt lat="47.11898" lon="6.12142">
        <ele>341</ele>
        <time>2022-06-05T00:00:47Z</time>
      </trkpt>
      <trkpt lat="47.11937" lon="6.1219">
        <ele>342</ele>
        <time>2022-06-05T00:01:28Z</time>
      </trkpt>
      <trkpt lat="47.11951" lon="6.12213">
        <ele>343</ele>
        <time>2022-06-05T00:01:45Z</time>
      </trkpt>
      <trkpt lat="47.11972" lon="6.1226">
        <ele>344</ele>
        <time>2022-06-05T00:02:15Z</time>
      </trkpt>
      <trkpt lat="47.11956" lon="6.12272">
        <ele>348</ele>
        <time>2022-06-05T00:02:29Z</time>
      </trkpt>
      <trkpt lat="47.11929" lon="6.12321">
        <ele>359</ele>
        <time>2022-06-05T00:03:04Z</time>
      </trkpt>
      <trkpt lat="47.11926" lon="6.12331">
        <ele>361</ele>
        <time>2022-06-05T00:03:09Z</time>
      </trkpt>
      <trkpt lat="47.11926" lon="6.1234">
        <ele>363</ele>
        <time>2022-06-05T00:03:15Z</time>
      </trkpt>
      <trkpt lat="47.11927" lon="6.12345">
        <ele>364</ele>
        <time>2022-06-05T00:03:18Z</time>
      </trkpt>
      <trkpt lat="47.11939" lon="6.12364">
        <ele>364</ele>
        <time>2022-06-05T00:03:32Z</time>
      </trkpt>
      <trkpt lat="47.1195" lon="6.12375">
        <ele>364</ele>
        <time>2022-06-05T00:03:42Z</time>
      </trkpt>
      <trkpt lat="47.11971" lon="6.12441">
        <ele>369</ele>
        <time>2022-06-05T00:04:22Z</time>
      </trkpt>
      <trkpt lat="47.11982" lon="6.12468">
        <ele>368</ele>
        <time>2022-06-05T00:04:39Z</time>
      </trkpt>
      <trkpt lat="47.1199" lon="6.12555">
        <ele>378</ele>
        <time>2022-06-05T00:05:27Z</time>
      </trkpt>
      <trkpt lat="47.11975" lon="6.12615">
        <ele>390</ele>
        <time>2022-06-05T00:06:02Z</time>
      </trkpt>
      <trkpt lat="47.11969" lon="6.12657">
        <ele>396</ele>
        <time>2022-06-05T00:06:26Z</time>
      </trkpt>
      <trkpt lat="47.11981" lon="6.12705">
        <ele>401</ele>
        <time>2022-06-05T00:06:54Z</time>
      </trkpt>
      <trkpt lat="47.11995" lon="6.12745">
        <ele>403</ele>
        <time>2022-06-05T00:07:18Z</time>
      </trkpt>
      <trkpt lat="47.11997" lon="6.12775">
        <ele>408</ele>
        <time>2022-06-05T00:07:34Z</time>
      </trkpt>
      <trkpt lat="47.12006" lon="6.12837">
        <ele>420</ele>
        <time>2022-06-05T00:08:09Z</time>
      </trkpt>
      <trkpt lat="47.12024" lon="6.12905">
        <ele>437</ele>
        <time>2022-06-05T00:08:49Z</time>
      </trkpt>
      <trkpt lat="47.12033" lon="6.12924">
        <ele>441</ele>
        <time>2022-06-05T00:09:02Z</time>
      </trkpt>
      <trkpt lat="47.12056" lon="6.12996">
        <ele>451</ele>
        <time>2022-06-05T00:09:45Z</time>
      </trkpt>
      <trkpt lat="47.12072" lon="6.13096">
        <ele>464</ele>
        <time>2022-06-05T00:10:41Z</time>
      </trkpt>
      <trkpt lat="47.12072" lon="6.13117">
        <ele>467</ele>
        <time>2022-06-05T00:10:52Z</time>
      </trkpt>
      <trkpt lat="47.12063" lon="6.13163">
        <ele>475</ele>
        <time>2022-06-05T00:11:18Z</time>
      </trkpt>
      <trkpt lat="47.12076" lon="6.13218">
        <ele>480</ele>
        <time>2022-06-05T00:11:50Z</time>
      </trkpt>
      <trkpt lat="47.12078" lon="6.13237">
        <ele>482</ele>
        <time>2022-06-05T00:12:00Z</time>
      </trkpt>
      <trkpt lat="47.12083" lon="6.13266">
        <ele>485</ele>
        <time>2022-06-05T00:12:17Z</time>
      </trkpt>
      <trkpt lat="47.12043" lon="6.13254">
        <ele>490</ele>
        <time>2022-06-05T00:12:50Z</time>
      </trkpt>
      <trkpt lat="47.12023" lon="6.13228">
        <ele>490</ele>
        <time>2022-06-05T00:13:11Z</time>
      </trkpt>
      <trkpt lat="47.12018" lon="6.13215">
        <ele>490</ele>
        <time>2022-06-05T00:13:20Z</time>
      </trkpt>
      <trkpt lat="47.12015" lon="6.13182">
        <ele>488</ele>
        <time>2022-06-05T00:13:38Z</time>
      </trkpt>
      <trkpt lat="47.12011" lon="6.13169">
        <ele>488</ele>
        <time>2022-06-05T00:13:45Z</time>
      </trkpt>
      <trkpt lat="47.12007" lon="6.13143">
        <ele>486</ele>
        <time>2022-06-05T00:14:00Z</time>
      </trkpt>
      <trkpt lat="47.11997" lon="6.13114">
        <ele>485</ele>
        <time>2022-06-05T00:14:17Z</time>
      </trkpt>
      <trkpt lat="47.11977" lon="6.13078">
        <ele>487</ele>
        <time>2022-06-05T00:14:43Z</time>
      </trkpt>
      <trkpt lat="47.11945" lon="6.13015">
        <ele>484</ele>
        <time>2022-06-05T00:15:26Z</time>
      </trkpt>
      <trkpt lat="47.11929" lon="6.12991">
        <ele>485</ele>
        <time>2022-06-05T00:15:45Z</time>
      </trkpt>
      <trkpt lat="47.1192" lon="6.12983">
        <ele>487</ele>
        <time>2022-06-05T00:15:53Z</time>
      </trkpt>
      <trkpt lat="47.11897" lon="6.12975">
        <ele>490</ele>
        <time>2022-06-05T00:16:11Z</time>
      </trkpt>
      <trkpt lat="47.11876" lon="6.12972">
        <ele>495</ele>
        <time>2022-06-05T00:16:29Z</time>
      </trkpt>
      <trkpt lat="47.11863" lon="6.12964">
        <ele>497</ele>
        <time>2022-06-05T00:16:40Z</time>
      </trkpt>
      <trkpt lat="47.11824" lon="6.12929">
        <ele>503</ele>
        <time>2022-06-05T00:17:16Z</time>
      </trkpt>
      <trkpt lat="47.11796" lon="6.12892">
        <ele>505</ele>
        <time>2022-06-05T00:17:46Z</time>
      </trkpt>
      <trkpt lat="47.11787" lon="6.12876">
        <ele>506</ele>
        <time>2022-06-05T00:17:58Z</time>
      </trkpt>
      <trkpt lat="47.11779" lon="6.12856">
        <ele>506</ele>
        <time>2022-06-05T00:18:11Z</time>
      </trkpt>
      <trkpt lat="47.11758" lon="6.12774">
        <ele>504</ele>
        <time>2022-06-05T00:18:59Z</time>
      </trkpt>
      <trkpt lat="47.11752" lon="6.12764">
        <ele>505</ele>
        <time>2022-06-05T00:19:05Z</time>
      </trkpt>
      <trkpt lat="47.11743" lon="6.12765">
        <ele>506</ele>
        <time>2022-06-05T00:19:13Z</time>
      </trkpt>
      <trkpt lat="47.11716" lon="6.12773">
        <ele>507</ele>
        <time>2022-06-05T00:19:35Z</time>
      </trkpt>
      <trkpt lat="47.11637" lon="6.12808">
        <ele>508</ele>
        <time>2022-06-05T00:20:41Z</time>
      </trkpt>
      <trkpt lat="47.11603" lon="6.12838">
        <ele>506</ele>
        <time>2022-06-05T00:21:13Z</time>
      </trkpt>
      <trkpt lat="47.11584" lon="6.12868">
        <ele>505</ele>
        <time>2022-06-05T00:21:35Z</time>
      </trkpt>
      <trkpt lat="47.11563" lon="6.12925">
        <ele>505</ele>
        <time>2022-06-05T00:22:10Z</time>
      </trkpt>
      <trkpt lat="47.1151" lon="6.13118">
        <ele>505</ele>
        <time>2022-06-05T00:24:03Z</time>
      </trkpt>
      <trkpt lat="47.11499" lon="6.13151">
        <ele>504</ele>
        <time>2022-06-05T00:24:24Z</time>
      </trkpt>
      <trkpt lat="47.11497" lon="6.13189">
        <ele>505</ele>
        <time>2022-06-05T00:24:44Z</time>
      </trkpt>
      <trkpt lat="47.11482" lon="6.13216">
        <ele>503</ele>
        <time>2022-06-05T00:25:04Z</time>
      </trkpt>
      <trkpt lat="47.11466" lon="6.13254">
        <ele>501</ele>
        <time>2022-06-05T00:25:28Z</time>
      </trkpt>
      <trkpt lat="47.1146" lon="6.13289">
        <ele>502</ele>
        <time>2022-06-05T00:25:48Z</time>
      </trkpt>
      <trkpt lat="47.11464" lon="6.13321">
        <ele>504</ele>
        <time>2022-06-05T00:26:06Z</time>
      </trkpt>
      <trkpt lat="47.11465" lon="6.13332">
        <ele>505</ele>
        <time>2022-06-05T00:26:12Z</time>
      </trkpt>
      <trkpt lat="47.11461" lon="6.1334">
        <ele>505</ele>
        <time>2022-06-05T00:26:17Z</time>
      </trkpt>
      <trkpt lat="47.11436" lon="6.13365">
        <ele>502</ele>
        <time>2022-06-05T00:26:41Z</time>
      </trkpt>
      <trkpt lat="47.11418" lon="6.13391">
        <ele>502</ele>
        <time>2022-06-05T00:27:02Z</time>
      </trkpt>
      <trkpt lat="47.1141" lon="6.13406">
        <ele>502</ele>
        <time>2022-06-05T00:27:12Z</time>
      </trkpt>
      <trkpt lat="47.11371" lon="6.13504">
        <ele>501</ele>
        <time>2022-06-05T00:28:14Z</time>
      </trkpt>
      <trkpt lat="47.11347" lon="6.13592">
        <ele>504</ele>
        <time>2022-06-05T00:29:05Z</time>
      </trkpt>
      <trkpt lat="47.11339" lon="6.13635">
        <ele>503</ele>
        <time>2022-06-05T00:29:30Z</time>
      </trkpt>
      <trkpt lat="47.11331" lon="6.13688">
        <ele>501</ele>
        <time>2022-06-05T00:29:59Z</time>
      </trkpt>
      <trkpt lat="47.11326" lon="6.13719">
        <ele>498</ele>
        <time>2022-06-05T00:30:17Z</time>
      </trkpt>
      <trkpt lat="47.11328" lon="6.13753">
        <ele>496</ele>
        <time>2022-06-05T00:30:35Z</time>
      </trkpt>
      <trkpt lat="47.11321" lon="6.13786">
        <ele>488</ele>
        <time>2022-06-05T00:30:54Z</time>
      </trkpt>
      <trkpt lat="47.11314" lon="6.13795">
        <ele>485</ele>
        <time>2022-06-05T00:31:02Z</time>
      </trkpt>
      <trkpt lat="47.11308" lon="6.13796">
        <ele>484</ele>
        <time>2022-06-05T00:31:07Z</time>
      </trkpt>
      <trkpt lat="47.11283" lon="6.1379">
        <ele>482</ele>
        <time>2022-06-05T00:31:27Z</time>
      </trkpt>
      <trkpt lat="47.11272" lon="6.13792">
        <ele>480</ele>
        <time>2022-06-05T00:31:36Z</time>
      </trkpt>
      <trkpt lat="47.1127" lon="6.13801">
        <ele>478</ele>
        <time>2022-06-05T00:31:41Z</time>
      </trkpt>
      <trkpt lat="47.11284" lon="6.13828">
        <ele>473</ele>
        <time>2022-06-05T00:31:59Z</time>
      </trkpt>
      <trkpt lat="47.11282" lon="6.13838">
        <ele>470</ele>
        <time>2022-06-05T00:32:05Z</time>
      </trkpt>
      <trkpt lat="47.11272" lon="6.1385">
        <ele>464</ele>
        <time>2022-06-05T00:32:16Z</time>
      </trkpt>
      <trkpt lat="47.11271" lon="6.13859">
        <ele>460</ele>
        <time>2022-06-05T00:32:21Z</time>
      </trkpt>
      <trkpt lat="47.11275" lon="6.13878">
        <ele>454</ele>
        <time>2022-06-05T00:32:32Z</time>
      </trkpt>
      <trkpt lat="47.11296" lon="6.1392">
        <ele>445</ele>
        <time>2022-06-05T00:33:00Z</time>
      </trkpt>
      <trkpt lat="47.11311" lon="6.13941">
        <ele>443</ele>
        <time>2022-06-05T00:33:17Z</time>
      </trkpt>
      <trkpt lat="47.11318" lon="6.13966">
        <ele>438</ele>
        <time>2022-06-05T00:33:31Z</time>
      </trkpt>
      <trkpt lat="47.11319" lon="6.13974">
        <ele>435</ele>
        <time>2022-06-05T00:33:36Z</time>
      </trkpt>
      <trkpt lat="47.11337" lon="6.14009">
        <ele>433</ele>
        <time>2022-06-05T00:34:00Z</time>
      </trkpt>
      <trkpt lat="47.11341" lon="6.14023">
        <ele>434</ele>
        <time>2022-06-05T00:34:08Z</time>
      </trkpt>
      <trkpt lat="47.11342" lon="6.14036">
        <ele>434</ele>
        <time>2022-06-05T00:34:15Z</time>
      </trkpt>
      <trkpt lat="47.11379" lon="6.14035">
        <ele>445</ele>
        <time>2022-06-05T00:34:45Z</time>
      </trkpt>
      <trkpt lat="47.11391" lon="6.14068">
        <ele>448</ele>
        <time>2022-06-05T00:35:06Z</time>
      </trkpt>
      <trkpt lat="47.11378" lon="6.14094">
        <ele>446</ele>
        <time>2022-06-05T00:35:24Z</time>
      </trkpt>
      <trkpt lat="47.11375" lon="6.14109">
        <ele>447</ele>
        <time>2022-06-05T00:35:32Z</time>
      </trkpt>
      <trkpt lat="47.11369" lon="6.14122">
        <ele>448</ele>
        <time>2022-06-05T00:35:41Z</time>
      </trkpt>
      <trkpt lat="47.11344" lon="6.14145">
        <ele>447</ele>
        <time>2022-06-05T00:36:04Z</time>
      </trkpt>
      <trkpt lat="47.11341" lon="6.1415">
        <ele>448</ele>
        <time>2022-06-05T00:36:08Z</time>
      </trkpt>
      <trkpt lat="47.11339" lon="6.14158">
        <ele>449</ele>
        <time>2022-06-05T00:36:12Z</time>
      </trkpt>
      <trkpt lat="47.11339" lon="6.14168">
        <ele>451</ele>
        <time>2022-06-05T00:36:18Z</time>
      </trkpt>
      <trkpt lat="47.11347" lon="6.14198">
        <ele>455</ele>
        <time>2022-06-05T00:36:35Z</time>
      </trkpt>
      <trkpt lat="47.11362" lon="6.1423">
        <ele>458</ele>
        <time>2022-06-05T00:36:57Z</time>
      </trkpt>
      <trkpt lat="47.11341" lon="6.14246">
        <ele>459</ele>
        <time>2022-06-05T00:37:16Z</time>
      </trkpt>
      <trkpt lat="47.11324" lon="6.14227">
        <ele>455</ele>
        <time>2022-06-05T00:37:33Z</time>
      </trkpt>
      <trkpt lat="47.11313" lon="6.14222">
        <ele>452</ele>
        <time>2022-06-05T00:37:43Z</time>
      </trkpt>
      <trkpt lat="47.11294" lon="6.14228">
        <ele>449</ele>
        <time>2022-06-05T00:37:58Z</time>
      </trkpt>
      <trkpt lat="47.11265" lon="6.1424">
        <ele>446</ele>
        <time>2022-06-05T00:38:22Z</time>
      </trkpt>
      <trkpt lat="47.1126" lon="6.14247">
        <ele>446</ele>
        <time>2022-06-05T00:38:28Z</time>
      </trkpt>
      <trkpt lat="47.11239" lon="6.14265">
        <ele>441</ele>
        <time>2022-06-05T00:38:47Z</time>
      </trkpt>
      <trkpt lat="47.11233" lon="6.14273">
        <ele>438</ele>
        <time>2022-06-05T00:38:54Z</time>
      </trkpt>
      <trkpt lat="47.11231" lon="6.1428">
        <ele>438</ele>
        <time>2022-06-05T00:38:58Z</time>
      </trkpt>
      <trkpt lat="47.11237" lon="6.143">
        <ele>441</ele>
        <time>2022-06-05T00:39:10Z</time>
      </trkpt>
      <trkpt lat="47.11242" lon="6.14306">
        <ele>443</ele>
        <time>2022-06-05T00:39:15Z</time>
      </trkpt>
      <trkpt lat="47.11274" lon="6.14304">
        <ele>449</ele>
        <time>2022-06-05T00:39:40Z</time>
      </trkpt>
      <trkpt lat="47.11278" lon="6.14302">
        <ele>449</ele>
        <time>2022-06-05T00:39:44Z</time>
      </trkpt>
      <trkpt lat="47.11304" lon="6.1428">
        <ele>453</ele>
        <time>2022-06-05T00:40:08Z</time>
      </trkpt>
      <trkpt lat="47.11322" lon="6.14271">
        <ele>456</ele>
        <time>2022-06-05T00:40:23Z</time>
      </trkpt>
      <trkpt lat="47.11341" lon="6.14246">
        <ele>459</ele>
        <time>2022-06-05T00:40:43Z</time>
      </trkpt>
      <trkpt lat="47.11362" lon="6.1423">
        <ele>458</ele>
        <time>2022-06-05T00:41:03Z</time>
      </trkpt>
      <trkpt lat="47.11373" lon="6.14226">
        <ele>458</ele>
        <time>2022-06-05T00:41:11Z</time>
      </trkpt>
      <trkpt lat="47.11396" lon="6.14204">
        <ele>458</ele>
        <time>2022-06-05T00:41:34Z</time>
      </trkpt>
      <trkpt lat="47.11409" lon="6.14197">
        <ele>460</ele>
        <time>2022-06-05T00:41:45Z</time>
      </trkpt>
      <trkpt lat="47.11421" lon="6.14183">
        <ele>461</ele>
        <time>2022-06-05T00:41:57Z</time>
      </trkpt>
      <trkpt lat="47.11425" lon="6.14189">
        <ele>460</ele>
        <time>2022-06-05T00:42:01Z</time>
      </trkpt>
      <trkpt lat="47.11443" lon="6.14199">
        <ele>459</ele>
        <time>2022-06-05T00:42:17Z</time>
      </trkpt>
      <trkpt lat="47.11456" lon="6.14194">
        <ele>459</ele>
        <time>2022-06-05T00:42:28Z</time>
      </trkpt>
      <trkpt lat="47.11469" lon="6.14181">
        <ele>461</ele>
        <time>2022-06-05T00:42:40Z</time>
      </trkpt>
      <trkpt lat="47.1152" lon="6.14148">
        <ele>468</ele>
        <time>2022-06-05T00:43:25Z</time>
      </trkpt>
      <trkpt lat="47.11545" lon="6.14144">
        <ele>469</ele>
        <time>2022-06-05T00:43:45Z</time>
      </trkpt>
      <trkpt lat="47.11597" lon="6.14143">
        <ele>469</ele>
        <time>2022-06-05T00:44:27Z</time>
      </trkpt>
      <trkpt lat="47.11644" lon="6.14144">
        <ele>466</ele>
        <time>2022-06-05T00:45:05Z</time>
      </trkpt>
      <trkpt lat="47.11764" lon="6.14158">
        <ele>463</ele>
        <time>2022-06-05T00:46:41Z</time>
      </trkpt>
      <trkpt lat="47.11792" lon="6.14156">
        <ele>465</ele>
        <time>2022-06-05T00:47:03Z</time>
      </trkpt>
      <trkpt lat="47.1182" lon="6.14157">
        <ele>466</ele>
        <time>2022-06-05T00:47:26Z</time>
      </trkpt>
      <trkpt lat="47.11833" lon="6.14165">
        <ele>464</ele>
        <time>2022-06-05T00:47:37Z</time>
      </trkpt>
      <trkpt lat="47.11844" lon="6.14176">
        <ele>465</ele>
        <time>2022-06-05T00:47:48Z</time>
      </trkpt>
      <trkpt lat="47.11866" lon="6.14212">
        <ele>467</ele>
        <time>2022-06-05T00:48:14Z</time>
      </trkpt>
      <trkpt lat="47.11882" lon="6.14282">
        <ele>467</ele>
        <time>2022-06-05T00:48:54Z</time>
      </trkpt>
      <trkpt lat="47.11897" lon="6.14372">
        <ele>464</ele>
        <time>2022-06-05T00:49:45Z</time>
      </trkpt>
      <trkpt lat="47.11928" lon="6.14476">
        <ele>462</ele>
        <time>2022-06-05T00:50:47Z</time>
      </trkpt>
      <trkpt lat="47.11939" lon="6.14532">
        <ele>458</ele>
        <time>2022-06-05T00:51:19Z</time>
      </trkpt>
      <trkpt lat="47.11945" lon="6.14591">
        <ele>453</ele>
        <time>2022-06-05T00:51:51Z</time>
      </trkpt>
      <trkpt lat="47.11957" lon="6.1463">
        <ele>456</ele>
        <time>2022-06-05T00:52:15Z</time>
      </trkpt>
      <trkpt lat="47.11967" lon="6.14649">
        <ele>457</ele>
        <time>2022-06-05T00:52:28Z</time>
      </trkpt>
      <trkpt lat="47.11992" lon="6.14671">
        <ele>462</ele>
        <time>2022-06-05T00:52:51Z</time>
      </trkpt>
      <trkpt lat="47.12016" lon="6.14681">
        <ele>467</ele>
        <time>2022-06-05T00:53:11Z</time>
      </trkpt>
      <trkpt lat="47.12017" lon="6.14691">
        <ele>469</ele>
        <time>2022-06-05T00:53:16Z</time>
      </trkpt>
      <trkpt lat="47.12059" lon="6.14704">
        <ele>475</ele>
        <time>2022-06-05T00:53:50Z</time>
      </trkpt>
      <trkpt lat="47.12074" lon="6.14718">
        <ele>478</ele>
        <time>2022-06-05T00:54:04Z</time>
      </trkpt>
      <trkpt lat="47.12087" lon="6.14735">
        <ele>480</ele>
        <time>2022-06-05T00:54:19Z</time>
      </trkpt>
      <trkpt lat="47.12103" lon="6.14766">
        <ele>487</ele>
        <time>2022-06-05T00:54:40Z</time>
      </trkpt>
      <trkpt lat="47.12117" lon="6.14802">
        <ele>495</ele>
        <time>2022-06-05T00:55:03Z</time>
      </trkpt>
      <trkpt lat="47.12145" lon="6.14886">
        <ele>505</ele>
        <time>2022-06-05T00:55:53Z</time>
      </trkpt>
      <trkpt lat="47.12161" lon="6.14921">
        <ele>507</ele>
        <time>2022-06-05T00:56:17Z</time>
      </trkpt>
      <trkpt lat="47.12167" lon="6.14941">
        <ele>509</ele>
        <time>2022-06-05T00:56:29Z</time>
      </trkpt>
      <trkpt lat="47.12193" lon="6.14988">
        <ele>516</ele>
        <time>2022-06-05T00:57:02Z</time>
      </trkpt>
      <trkpt lat="47.12196" lon="6.15011">
        <ele>518</ele>
        <time>2022-06-05T00:57:14Z</time>
      </trkpt>
      <trkpt lat="47.12213" lon="6.1504">
        <ele>522</ele>
        <time>2022-06-05T00:57:35Z</time>
      </trkpt>
      <trkpt lat="47.12221" lon="6.15084">
        <ele>525</ele>
        <time>2022-06-05T00:58:00Z</time>
      </trkpt>
      <trkpt lat="47.12238" lon="6.151">
        <ele>527</ele>
        <time>2022-06-05T00:58:16Z</time>
      </trkpt>
      <trkpt lat="47.12242" lon="6.15101">
        <ele>527</ele>
        <time>2022-06-05T00:58:20Z</time>
      </trkpt>
      <trkpt lat="47.12246" lon="6.15106">
        <ele>528</ele>
        <time>2022-06-05T00:58:24Z</time>
      </trkpt>
      <trkpt lat="47.12269" lon="6.15144">
        <ele>532</ele>
        <time>2022-06-05T00:58:52Z</time>
      </trkpt>
      <trkpt lat="47.12285" lon="6.15165">
        <ele>535</ele>
        <time>2022-06-05T00:59:09Z</time>
      </trkpt>
      <trkpt lat="47.12298" lon="6.15185">
        <ele>536</ele>
        <time>2022-06-05T00:59:24Z</time>
      </trkpt>
      <trkpt lat="47.12295" lon="6.15204">
        <ele>537</ele>
        <time>2022-06-05T00:59:34Z</time>
      </trkpt>
      <trkpt lat="47.12296" lon="6.15212">
        <ele>538</ele>
        <time>2022-06-05T00:59:39Z</time>
      </trkpt>
      <trkpt lat="47.12303" lon="6.15271">
        <ele>541</ele>
        <time>2022-06-05T01:00:12Z</time>
      </trkpt>
      <trkpt lat="47.1231" lon="6.15346">
        <ele>542</ele>
        <time>2022-06-05T01:00:53Z</time>
      </trkpt>
      <trkpt lat="47.12308" lon="6.15381">
        <ele>542</ele>
        <time>2022-06-05T01:01:12Z</time>
      </trkpt>
      <trkpt lat="47.12296" lon="6.15524">
        <ele>538</ele>
        <time>2022-06-05T01:02:31Z</time>
      </trkpt>
      <trkpt lat="47.12297" lon="6.15545">
        <ele>538</ele>
        <time>2022-06-05T01:02:42Z</time>
      </trkpt>
      <trkpt lat="47.12304" lon="6.15588">
        <ele>536</ele>
        <time>2022-06-05T01:03:06Z</time>
      </trkpt>
      <trkpt lat="47.12317" lon="6.1565">
        <ele>536</ele>
        <time>2022-06-05T01:03:42Z</time>
      </trkpt>
      <trkpt lat="47.1234" lon="6.15731">
        <ele>538</ele>
        <time>2022-06-05T01:04:29Z</time>
      </trkpt>
      <trkpt lat="47.12414" lon="6.15952">
        <ele>537</ele>
        <time>2022-06-05T01:06:44Z</time>
      </trkpt>
      <trkpt lat="47.12427" lon="6.15997">
        <ele>534</ele>
        <time>2022-06-05T01:07:10Z</time>
      </trkpt>
      <trkpt lat="47.12428" lon="6.16014">
        <ele>534</ele>
        <time>2022-06-05T01:07:20Z</time>
      </trkpt>
      <trkpt lat="47.12441" lon="6.16031">
        <ele>533</ele>
        <time>2022-06-05T01:07:33Z</time>
      </trkpt>
      <trkpt lat="47.12463" lon="6.16049">
        <ele>531</ele>
        <time>2022-06-05T01:07:54Z</time>
      </trkpt>
      <trkpt lat="47.1253" lon="6.16087">
        <ele>528</ele>
        <time>2022-06-05T01:08:51Z</time>
      </trkpt>
      <trkpt lat="47.12535" lon="6.16076">
        <ele>528</ele>
        <time>2022-06-05T01:08:58Z</time>
      </trkpt>
      <trkpt lat="47.12551" lon="6.16071">
        <ele>526</ele>
        <time>2022-06-05T01:09:11Z</time>
      </trkpt>
      <trkpt lat="47.12609" lon="6.16021">
        <ele>517</ele>
        <time>2022-06-05T01:10:05Z</time>
      </trkpt>
      <trkpt lat="47.12645" lon="6.15998">
        <ele>510</ele>
        <time>2022-06-05T01:10:37Z</time>
      </trkpt>
      <trkpt lat="47.12653" lon="6.15998">
        <ele>509</ele>
        <time>2022-06-05T01:10:44Z</time>
      </trkpt>
      <trkpt lat="47.12661" lon="6.16006">
        <ele>509</ele>
        <time>2022-06-05T01:10:51Z</time>
      </trkpt>
      <trkpt lat="47.12729" lon="6.1611">
        <ele>508</ele>
        <time>2022-06-05T01:12:10Z</time>
      </trkpt>
      <trkpt lat="47.12747" lon="6.16136">
        <ele>511</ele>
        <time>2022-06-05T01:12:30Z</time>
      </trkpt>
      <trkpt lat="47.1277" lon="6.1616">
        <ele>510</ele>
        <time>2022-06-05T01:12:53Z</time>
      </trkpt>
      <trkpt lat="47.12789" lon="6.16163">
        <ele>506</ele>
        <time>2022-06-05T01:13:09Z</time>
      </trkpt>
      <trkpt lat="47.1282" lon="6.16161">
        <ele>498</ele>
        <time>2022-06-05T01:13:33Z</time>
      </trkpt>
      <trkpt lat="47.12855" lon="6.16149">
        <ele>480</ele>
        <time>2022-06-05T01:14:01Z</time>
      </trkpt>
      <trkpt lat="47.12889" lon="6.16148">
        <ele>462</ele>
        <time>2022-06-05T01:14:29Z</time>
      </trkpt>
      <trkpt lat="47.12905" lon="6.16156">
        <ele>455</ele>
        <time>2022-06-05T01:14:43Z</time>
      </trkpt>
      <trkpt lat="47.1291" lon="6.16149">
        <ele>451</ele>
        <time>2022-06-05T01:14:48Z</time>
      </trkpt>
      <trkpt lat="47.12907" lon="6.16124">
        <ele>447</ele>
        <time>2022-06-05T01:15:02Z</time>
      </trkpt>
      <trkpt lat="47.12893" lon="6.16104">
        <ele>449</ele>
        <time>2022-06-05T01:15:18Z</time>
      </trkpt>
      <trkpt lat="47.12912" lon="6.16108">
        <ele>442</ele>
        <time>2022-06-05T01:15:33Z</time>
      </trkpt>
      <trkpt lat="47.1293" lon="6.16103">
        <ele>432</ele>
        <time>2022-06-05T01:15:48Z</time>
      </trkpt>
      <trkpt lat="47.12944" lon="6.16103">
        <ele>424</ele>
        <time>2022-06-05T01:16:00Z</time>
      </trkpt>
      <trkpt lat="47.12955" lon="6.16108">
        <ele>419</ele>
        <time>2022-06-05T01:16:08Z</time>
      </trkpt>
      <trkpt lat="47.12956" lon="6.16143">
        <ele>422</ele>
        <time>2022-06-05T01:16:27Z</time>
      </trkpt>
      <trkpt lat="47.12952" lon="6.16176">
        <ele>426</ele>
        <time>2022-06-05T01:16:46Z</time>
      </trkpt>
      <trkpt lat="47.12941" lon="6.16219">
        <ele>429</ele>
        <time>2022-06-05T01:17:11Z</time>
      </trkpt>
      <trkpt lat="47.12931" lon="6.16248">
        <ele>433</ele>
        <time>2022-06-05T01:17:29Z</time>
      </trkpt>
      <trkpt lat="47.1292" lon="6.16266">
        <ele>437</ele>
        <time>2022-06-05T01:17:42Z</time>
      </trkpt>
      <trkpt lat="47.12884" lon="6.16364">
        <ele>433</ele>
        <time>2022-06-05T01:18:43Z</time>
      </trkpt>
      <trkpt lat="47.12862" lon="6.16437">
        <ele>426</ele>
        <time>2022-06-05T01:19:27Z</time>
      </trkpt>
      <trkpt lat="47.12844" lon="6.16494">
        <ele>424</ele>
        <time>2022-06-05T01:20:01Z</time>
      </trkpt>
      <trkpt lat="47.12827" lon="6.16532">
        <ele>426</ele>
        <time>2022-06-05T01:20:26Z</time>
      </trkpt>
      <trkpt lat="47.12809" lon="6.1658">
        <ele>429</ele>
        <time>2022-06-05T01:20:56Z</time>
      </trkpt>
      <trkpt lat="47.12781" lon="6.16731">
        <ele>425</ele>
        <time>2022-06-05T01:22:21Z</time>
      </trkpt>
      <trkpt lat="47.12782" lon="6.1676">
        <ele>420</ele>
        <time>2022-06-05T01:22:37Z</time>
      </trkpt>
      <trkpt lat="47.12777" lon="6.16805">
        <ele>415</ele>
        <time>2022-06-05T01:23:01Z</time>
      </trkpt>
      <trkpt lat="47.12768" lon="6.16836">
        <ele>413</ele>
        <time>2022-06-05T01:23:20Z</time>
      </trkpt>
      <trkpt lat="47.12756" lon="6.16855">
        <ele>415</ele>
        <time>2022-06-05T01:23:34Z</time>
      </trkpt>
      <trkpt lat="47.12744" lon="6.16857">
        <ele>417</ele>
        <time>2022-06-05T01:23:44Z</time>
      </trkpt>
      <trkpt lat="47.12713" lon="6.16853">
        <ele>424</ele>
        <time>2022-06-05T01:24:09Z</time>
      </trkpt>
      <trkpt lat="47.12678" lon="6.16843">
        <ele>431</ele>
        <time>2022-06-05T01:24:37Z</time>
      </trkpt>
      <trkpt lat="47.12669" lon="6.16845">
        <ele>432</ele>
        <time>2022-06-05T01:24:45Z</time>
      </trkpt>
      <trkpt lat="47.12669" lon="6.16858">
        <ele>433</ele>
        <time>2022-06-05T01:24:52Z</time>
      </trkpt>
      <trkpt lat="47.12692" lon="6.16903">
        <ele>428</ele>
        <time>2022-06-05T01:25:22Z</time>
      </trkpt>
      <trkpt lat="47.12706" lon="6.16922">
        <ele>423</ele>
        <time>2022-06-05T01:25:38Z</time>
      </trkpt>
      <trkpt lat="47.12752" lon="6.16953">
        <ele>408</ele>
        <time>2022-06-05T01:26:19Z</time>
      </trkpt>
      <trkpt lat="47.12784" lon="6.16965">
        <ele>399</ele>
        <time>2022-06-05T01:26:44Z</time>
      </trkpt>
      <trkpt lat="47.12832" lon="6.16992">
        <ele>384</ele>
        <time>2022-06-05T01:27:26Z</time>
      </trkpt>
      <trkpt lat="47.12857" lon="6.16985">
        <ele>385</ele>
        <time>2022-06-05T01:27:46Z</time>
      </trkpt>
      <trkpt lat="47.1286" lon="6.16983">
        <ele>386</ele>
        <time>2022-06-05T01:27:49Z</time>
      </trkpt>
      <trkpt lat="47.12856" lon="6.16938">
        <ele>384</ele>
        <time>2022-06-05T01:28:14Z</time>
      </trkpt>
      <trkpt lat="47.12858" lon="6.16895">
        <ele>385</ele>
        <time>2022-06-05T01:28:37Z</time>
      </trkpt>
      <trkpt lat="47.12889" lon="6.16707">
        <ele>384</ele>
        <time>2022-06-05T01:30:23Z</time>
      </trkpt>
      <trkpt lat="47.12895" lon="6.16676">
        <ele>383</ele>
        <time>2022-06-05T01:30:40Z</time>
      </trkpt>
      <trkpt lat="47.12935" lon="6.16512">
        <ele>381</ele>
        <time>2022-06-05T01:32:15Z</time>
      </trkpt>
      <trkpt lat="47.12943" lon="6.16491">
        <ele>381</ele>
        <time>2022-06-05T01:32:29Z</time>
      </trkpt>
      <trkpt lat="47.12954" lon="6.16472">
        <ele>381</ele>
        <time>2022-06-05T01:32:42Z</time>
      </trkpt>
      <trkpt lat="47.12966" lon="6.1646">
        <ele>379</ele>
        <time>2022-06-05T01:32:54Z</time>
      </trkpt>
      <trkpt lat="47.12978" lon="6.16453">
        <ele>377</ele>
        <time>2022-06-05T01:33:05Z</time>
      </trkpt>
      <trkpt lat="47.12986" lon="6.16451">
        <ele>375</ele>
        <time>2022-06-05T01:33:10Z</time>
      </trkpt>
      <trkpt lat="47.13" lon="6.16454">
        <ele>372</ele>
        <time>2022-06-05T01:33:22Z</time>
      </trkpt>
      <trkpt lat="47.1301" lon="6.16451">
        <ele>375</ele>
        <time>2022-06-05T01:33:30Z</time>
      </trkpt>
      <trkpt lat="47.13014" lon="6.16447">
        <ele>376</ele>
        <time>2022-06-05T01:33:34Z</time>
      </trkpt>
      <trkpt lat="47.1302" lon="6.16426">
        <ele>377</ele>
        <time>2022-06-05T01:33:47Z</time>
      </trkpt>
      <trkpt lat="47.1304" lon="6.16343">
        <ele>376</ele>
        <time>2022-06-05T01:34:34Z</time>
      </trkpt>
      <trkpt lat="47.13066" lon="6.16241">
        <ele>372</ele>
        <time>2022-06-05T01:35:34Z</time>
      </trkpt>
      <trkpt lat="47.13079" lon="6.16199">
        <ele>370</ele>
        <time>2022-06-05T01:35:59Z</time>
      </trkpt>
      <trkpt lat="47.1308" lon="6.16189">
        <ele>370</ele>
        <time>2022-06-05T01:36:05Z</time>
      </trkpt>
      <trkpt lat="47.13076" lon="6.16144">
        <ele>371</ele>
        <time>2022-06-05T01:36:29Z</time>
      </trkpt>
      <trkpt lat="47.13077" lon="6.16134">
        <ele>370</ele>
        <time>2022-06-05T01:36:34Z</time>
      </trkpt>
      <trkpt lat="47.13079" lon="6.16127">
        <ele>369</ele>
        <time>2022-06-05T01:36:39Z</time>
      </trkpt>
      <trkpt lat="47.13098" lon="6.16096">
        <ele>367</ele>
        <time>2022-06-05T01:37:01Z</time>
      </trkpt>
      <trkpt lat="47.13105" lon="6.16079">
        <ele>366</ele>
        <time>2022-06-05T01:37:12Z</time>
      </trkpt>
      <trkpt lat="47.13117" lon="6.16038">
        <ele>367</ele>
        <time>2022-06-05T01:37:37Z</time>
      </trkpt>
      <trkpt lat="47.13126" lon="6.16021">
        <ele>367</ele>
        <time>2022-06-05T01:37:49Z</time>
      </trkpt>
      <trkpt lat="47.13131" lon="6.16016">
        <ele>366</ele>
        <time>2022-06-05T01:37:53Z</time>
      </trkpt>
      <trkpt lat="47.13131" lon="6.16005">
        <ele>367</ele>
        <time>2022-06-05T01:37:59Z</time>
      </trkpt>
      <trkpt lat="47.1316" lon="6.15895">
        <ele>365</ele>
        <time>2022-06-05T01:39:03Z</time>
      </trkpt>
      <trkpt lat="47.1317" lon="6.15842">
        <ele>363</ele>
        <time>2022-06-05T01:39:33Z</time>
      </trkpt>
      <trkpt lat="47.13176" lon="6.15791">
        <ele>364</ele>
        <time>2022-06-05T01:40:02Z</time>
      </trkpt>
      <trkpt lat="47.13183" lon="6.15764">
        <ele>364</ele>
        <time>2022-06-05T01:40:17Z</time>
      </trkpt>
      <trkpt lat="47.13193" lon="6.15739">
        <ele>364</ele>
        <time>2022-06-05T01:40:33Z</time>
      </trkpt>
      <trkpt lat="47.13223" lon="6.15692">
        <ele>365</ele>
        <time>2022-06-05T01:41:08Z</time>
      </trkpt>
      <trkpt lat="47.13281" lon="6.15611">
        <ele>366</ele>
        <time>2022-06-05T01:42:13Z</time>
      </trkpt>
      <trkpt lat="47.13292" lon="6.1559">
        <ele>366</ele>
        <time>2022-06-05T01:42:27Z</time>
      </trkpt>
      <trkpt lat="47.13301" lon="6.15566">
        <ele>367</ele>
        <time>2022-06-05T01:42:42Z</time>
      </trkpt>
      <trkpt lat="47.13335" lon="6.15433">
        <ele>364</ele>
        <time>2022-06-05T01:43:59Z</time>
      </trkpt>
      <trkpt lat="47.13356" lon="6.15383">
        <ele>366</ele>
        <time>2022-06-05T01:44:31Z</time>
      </trkpt>
      <trkpt lat="47.13389" lon="6.15311">
        <ele>366</ele>
        <time>2022-06-05T01:45:19Z</time>
      </trkpt>
      <trkpt lat="47.1341" lon="6.15252">
        <ele>365</ele>
        <time>2022-06-05T01:45:55Z</time>
      </trkpt>
      <trkpt lat="47.13415" lon="6.1522">
        <ele>365</ele>
        <time>2022-06-05T01:46:13Z</time>
      </trkpt>
      <trkpt lat="47.13417" lon="6.15185">
        <ele>364</ele>
        <time>2022-06-05T01:46:32Z</time>
      </trkpt>
      <trkpt lat="47.13397" lon="6.15137">
        <ele>366</ele>
        <time>2022-06-05T01:47:03Z</time>
      </trkpt>
      <trkpt lat="47.13356" lon="6.151">
        <ele>365</ele>
        <time>2022-06-05T01:47:41Z</time>
      </trkpt>
      <trkpt lat="47.13345" lon="6.15082">
        <ele>365</ele>
        <time>2022-06-05T01:47:54Z</time>
      </trkpt>
      <trkpt lat="47.13333" lon="6.15058">
        <ele>363</ele>
        <time>2022-06-05T01:48:11Z</time>
      </trkpt>
      <trkpt lat="47.13319" lon="6.15042">
        <ele>363</ele>
        <time>2022-06-05T01:48:25Z</time>
      </trkpt>
      <trkpt lat="47.13317" lon="6.15011">
        <ele>362</ele>
        <time>2022-06-05T01:48:42Z</time>
      </trkpt>
      <trkpt lat="47.13323" lon="6.14914">
        <ele>359</ele>
        <time>2022-06-05T01:49:35Z</time>
      </trkpt>
      <trkpt lat="47.13334" lon="6.14807">
        <ele>363</ele>
        <time>2022-06-05T01:50:34Z</time>
      </trkpt>
      <trkpt lat="47.13324" lon="6.14753">
        <ele>371</ele>
        <time>2022-06-05T01:51:04Z</time>
      </trkpt>
      <trkpt lat="47.13324" lon="6.14729">
        <ele>372</ele>
        <time>2022-06-05T01:51:17Z</time>
      </trkpt>
      <trkpt lat="47.13337" lon="6.14659">
        <ele>372</ele>
        <time>2022-06-05T01:51:57Z</time>
      </trkpt>
      <trkpt lat="47.1334" lon="6.14609">
        <ele>377</ele>
        <time>2022-06-05T01:52:24Z</time>
      </trkpt>
      <trkpt lat="47.13351" lon="6.14569">
        <ele>380</ele>
        <time>2022-06-05T01:52:48Z</time>
      </trkpt>
      <trkpt lat="47.13365" lon="6.14482">
        <ele>390</ele>
        <time>2022-06-05T01:53:37Z</time>
      </trkpt>
      <trkpt lat="47.1338" lon="6.14429">
        <ele>391</ele>
        <time>2022-06-05T01:54:08Z</time>
      </trkpt>
      <trkpt lat="47.13389" lon="6.14375">
        <ele>394</ele>
        <time>2022-06-05T01:54:38Z</time>
      </trkpt>
      <trkpt lat="47.13398" lon="6.14278">
        <ele>398</ele>
        <time>2022-06-05T01:55:31Z</time>
      </trkpt>
      <trkpt lat="47.13413" lon="6.14195">
        <ele>393</ele>
        <time>2022-06-05T01:56:18Z</time>
      </trkpt>
      <trkpt lat="47.13405" lon="6.14026">
        <ele>389</ele>
        <time>2022-06-05T01:57:50Z</time>
      </trkpt>
      <trkpt lat="47.13402" lon="6.14009">
        <ele>389</ele>
        <time>2022-06-05T01:58:00Z</time>
      </trkpt>
      <trkpt lat="47.13389" lon="6.13996">
        <ele>393</ele>
        <time>2022-06-05T01:58:13Z</time>
      </trkpt>
      <trkpt lat="47.13373" lon="6.13973">
        <ele>396</ele>
        <time>2022-06-05T01:58:30Z</time>
      </trkpt>
      <trkpt lat="47.13364" lon="6.13953">
        <ele>397</ele>
        <time>2022-06-05T01:58:44Z</time>
      </trkpt>
      <trkpt lat="47.13352" lon="6.13943">
        <ele>401</ele>
        <time>2022-06-05T01:58:55Z</time>
      </trkpt>
      <trkpt lat="47.13332" lon="6.13898">
        <ele>405</ele>
        <time>2022-06-05T01:59:24Z</time>
      </trkpt>
      <trkpt lat="47.13324" lon="6.13872">
        <ele>406</ele>
        <time>2022-06-05T01:59:40Z</time>
      </trkpt>
      <trkpt lat="47.13312" lon="6.13851">
        <ele>409</ele>
        <time>2022-06-05T01:59:55Z</time>
      </trkpt>
      <trkpt lat="47.13271" lon="6.13744">
        <ele>418</ele>
        <time>2022-06-05T02:01:02Z</time>
      </trkpt>
      <trkpt lat="47.13237" lon="6.13627">
        <ele>419</ele>
        <time>2022-06-05T02:02:11Z</time>
      </trkpt>
      <trkpt lat="47.13227" lon="6.13574">
        <ele>417</ele>
        <time>2022-06-05T02:02:41Z</time>
      </trkpt>
      <trkpt lat="47.13225" lon="6.13546">
        <ele>417</ele>
        <time>2022-06-05T02:02:56Z</time>
      </trkpt>
      <trkpt lat="47.13227" lon="6.13462">
        <ele>411</ele>
        <time>2022-06-05T02:03:42Z</time>
      </trkpt>
      <trkpt lat="47.13225" lon="6.1343">
        <ele>411</ele>
        <time>2022-06-05T02:04:00Z</time>
      </trkpt>
      <trkpt lat="47.13218" lon="6.13392">
        <ele>408</ele>
        <time>2022-06-05T02:04:21Z</time>
      </trkpt>
      <trkpt lat="47.13211" lon="6.13365">
        <ele>407</ele>
        <time>2022-06-05T02:04:37Z</time>
      </trkpt>
      <trkpt lat="47.13202" lon="6.13346">
        <ele>408</ele>
        <time>2022-06-05T02:04:50Z</time>
      </trkpt>
      <trkpt lat="47.13197" lon="6.13332">
        <ele>408</ele>
        <time>2022-06-05T02:04:59Z</time>
      </trkpt>
      <trkpt lat="47.13183" lon="6.1331">
        <ele>412</ele>
        <time>2022-06-05T02:05:15Z</time>
      </trkpt>
      <trkpt lat="47.13139" lon="6.1323">
        <ele>419</ele>
        <time>2022-06-05T02:06:11Z</time>
      </trkpt>
      <trkpt lat="47.13119" lon="6.13196">
        <ele>417</ele>
        <time>2022-06-05T02:06:36Z</time>
      </trkpt>
      <trkpt lat="47.13092" lon="6.13158">
        <ele>420</ele>
        <time>2022-06-05T02:07:06Z</time>
      </trkpt>
      <trkpt lat="47.13071" lon="6.13108">
        <ele>420</ele>
        <time>2022-06-05T02:07:38Z</time>
      </trkpt>
      <trkpt lat="47.13047" lon="6.13073">
        <ele>420</ele>
        <time>2022-06-05T02:08:05Z</time>
      </trkpt>
      <trkpt lat="47.13022" lon="6.13048">
        <ele>420</ele>
        <time>2022-06-05T02:08:29Z</time>
      </trkpt>
      <trkpt lat="47.13002" lon="6.13008">
        <ele>418</ele>
        <time>2022-06-05T02:08:56Z</time>
      </trkpt>
      <trkpt lat="47.12982" lon="6.12976">
        <ele>414</ele>
        <time>2022-06-05T02:09:20Z</time>
      </trkpt>
      <trkpt lat="47.12962" lon="6.1295">
        <ele>412</ele>
        <time>2022-06-05T02:09:41Z</time>
      </trkpt>
      <trkpt lat="47.12929" lon="6.12918">
        <ele>412</ele>
        <time>2022-06-05T02:10:13Z</time>
      </trkpt>
      <trkpt lat="47.12897" lon="6.12892">
        <ele>408</ele>
        <time>2022-06-05T02:10:42Z</time>
      </trkpt>
      <trkpt lat="47.12876" lon="6.12863">
        <ele>404</ele>
        <time>2022-06-05T02:11:05Z</time>
      </trkpt>
      <trkpt lat="47.12728" lon="6.12751">
        <ele>404</ele>
        <time>2022-06-05T02:13:19Z</time>
      </trkpt>
      <trkpt lat="47.1256" lon="6.12611">
        <ele>392</ele>
        <time>2022-06-05T02:15:54Z</time>
      </trkpt>
      <trkpt lat="47.12527" lon="6.12582">
        <ele>386</ele>
        <time>2022-06-05T02:16:24Z</time>
      </trkpt>
      <trkpt lat="47.125" lon="6.12551">
        <ele>380</ele>
        <time>2022-06-05T02:16:52Z</time>
      </trkpt>
      <trkpt lat="47.12481" lon="6.12537">
        <ele>377</ele>
        <time>2022-06-05T02:17:09Z</time>
      </trkpt>
      <trkpt lat="47.12443" lon="6.12515">
        <ele>372</ele>
        <time>2022-06-05T02:17:42Z</time>
      </trkpt>
      <trkpt lat="47.12317" lon="6.12418">
        <ele>357</ele>
        <time>2022-06-05T02:19:36Z</time>
      </trkpt>
      <trkpt lat="47.12296" lon="6.12408">
        <ele>356</ele>
        <time>2022-06-05T02:19:53Z</time>
      </trkpt>
      <trkpt lat="47.12258" lon="6.12394">
        <ele>356</ele>
        <time>2022-06-05T02:20:24Z</time>
      </trkpt>
      <trkpt lat="47.12226" lon="6.12387">
        <ele>355</ele>
        <time>2022-06-05T02:20:51Z</time>
      </trkpt>
      <trkpt lat="47.12172" lon="6.12379">
        <ele>355</ele>
        <time>2022-06-05T02:21:34Z</time>
      </trkpt>
      <trkpt lat="47.12077" lon="6.12345">
        <ele>341</ele>
        <time>2022-06-05T02:22:52Z</time>
      </trkpt>
      <trkpt lat="47.12037" lon="6.12346">
        <ele>344</ele>
        <time>2022-06-05T02:23:24Z</time>
      </trkpt>
      <trkpt lat="47.12021" lon="6.12343">
        <ele>346</ele>
        <time>2022-06-05T02:23:37Z</time>
      </trkpt>
      <trkpt lat="47.12014" lon="6.12327">
        <ele>344</ele>
        <time>2022-06-05T02:23:48Z</time>
      </trkpt>
      <trkpt lat="47.12011" lon="6.12314">
        <ele>344</ele>
        <time>2022-06-05T02:23:55Z</time>
      </trkpt>
      <trkpt lat="47.11997" lon="6.12284">
        <ele>343</ele>
        <time>2022-06-05T02:24:15Z</time>
      </trkpt>
      <trkpt lat="47.11972" lon="6.1226">
        <ele>344</ele>
        <time>2022-06-05T02:24:39Z</time>
      </trkpt>
      <trkpt lat="47.11951" lon="6.12213">
        <ele>343</ele>
        <time>2022-06-05T02:25:10Z</time>
      </trkpt>
      <trkpt lat="47.11937" lon="6.1219">
        <ele>342</ele>
        <time>2022-06-05T02:25:27Z</time>
      </trkpt>
      <trkpt lat="47.11898" lon="6.12142">
        <ele>341</ele>
        <time>2022-06-05T02:26:07Z</time>
      </trkpt>
      <trkpt lat="47.11872" lon="6.12125">
        <ele>342</ele>
        <time>2022-06-05T02:26:30Z</time>
      </trkpt>
      <trkpt lat="47.11852" lon="6.12104">
        <ele>342</ele>
        <time>2022-06-05T02:26:50Z</time>
      </trkpt>
      <trkpt lat="47.11848" lon="6.12098">
        <ele>341</ele>
        <time>2022-06-05T02:26:54Z</time>
      </trkpt>
    </trkseg>
  </trk>
</gpx>